Time;durP1;ratioP1;P1;durP2;ratioP2;P2;SDS_P1;SDS_P2;PMS_P1;PMS_P2;Temp;Humidity;BMP_temperature;BMP_pressure;BME280_temperature;BME280_humidity;BME280_pressure;Samples;Min_cycle;Max_cycle;Signal;HPM_P1;HPM_P2
2023/08/14 00:00:29;;;;;;;9.40;5.47;;;16.10;99.90;;;;;;5006936;28;20076;-57
2023/08/14 00:02:54;;;;;;;10.27;5.82;;;16.00;99.90;;;;;;5023840;28;20045;-55
2023/08/14 00:05:20;;;;;;;11.13;6.30;;;16.00;99.90;;;;;;5008525;28;20038;-56
2023/08/14 00:07:46;;;;;;;7.05;5.30;;;16.00;99.90;;;;;;5008910;28;20037;-56
2023/08/14 00:10:11;;;;;;;9.85;5.82;;;16.00;99.90;;;;;;5008420;28;20041;-57
2023/08/14 00:12:37;;;;;;;8.15;5.40;;;16.00;99.90;;;;;;5008433;28;20154;-57
2023/08/14 00:15:03;;;;;;;7.32;5.60;;;16.00;99.90;;;;;;5008515;28;20128;-57
2023/08/14 00:17:28;;;;;;;8.52;6.03;;;16.00;99.90;;;;;;5006725;28;20045;-56
2023/08/14 00:19:54;;;;;;;8.50;5.88;;;16.00;99.90;;;;;;5007938;28;20107;-57
2023/08/14 00:22:19;;;;;;;9.55;6.20;;;15.90;99.90;;;;;;5009191;28;20401;-55
2023/08/14 00:24:45;;;;;;;8.32;6.05;;;15.90;99.90;;;;;;5008817;28;20408;-55
2023/08/14 00:27:11;;;;;;;8.57;6.05;;;15.90;99.90;;;;;;5008323;28;20045;-56
2023/08/14 00:29:36;;;;;;;6.90;5.63;;;15.90;99.90;;;;;;5008346;28;20046;-56
2023/08/14 00:32:02;;;;;;;11.13;6.65;;;15.80;99.90;;;;;;5007188;28;20045;-57
2023/08/14 00:34:28;;;;;;;10.75;6.25;;;15.80;99.90;;;;;;5007046;28;20500;-56
2023/08/14 00:36:53;;;;;;;7.50;5.82;;;15.90;99.90;;;;;;5007823;28;20042;-57
2023/08/14 00:39:19;;;;;;;9.00;6.15;;;15.80;99.90;;;;;;4989439;28;20046;-57
2023/08/14 00:41:45;;;;;;;7.80;6.00;;;15.80;99.90;;;;;;4988738;28;20077;-57
2023/08/14 00:44:10;;;;;;;8.32;5.88;;;15.70;99.90;;;;;;4999445;28;20129;-57
2023/08/14 00:46:36;;;;;;;8.50;5.80;;;15.70;99.90;;;;;;5008089;28;20417;-57
2023/08/14 00:49:02;;;;;;;9.93;5.68;;;15.70;99.90;;;;;;5008230;28;20469;-56
2023/08/14 00:51:27;;;;;;;6.80;5.90;;;15.70;99.90;;;;;;5007981;28;20088;-57
2023/08/14 00:53:54;;;;;;;9.15;5.78;;;15.60;99.90;;;;;;5007644;28;20378;-55
2023/08/14 00:56:21;;;;;;;8.35;5.97;;;15.70;99.90;;;;;;5008240;28;20044;-55
2023/08/14 00:58:48;;;;;;;8.85;5.90;;;15.70;99.90;;;;;;5007035;28;20137;-56
2023/08/14 01:01:13;;;;;;;8.55;6.20;;;15.60;99.90;;;;;;5007380;28;20382;-56
2023/08/14 01:03:39;;;;;;;7.68;6.15;;;15.60;99.90;;;;;;5008084;28;20095;-57
2023/08/14 01:06:05;;;;;;;7.28;5.68;;;15.60;99.90;;;;;;5006595;28;20596;-54
2023/08/14 01:08:33;;;;;;;9.77;6.35;;;15.60;99.90;;;;;;5007810;28;20050;-57
2023/08/14 01:11:13;;;;;;;9.43;6.20;;;15.60;99.90;;;;;;5007765;28;20088;-56
2023/08/14 01:16:19;;;;;;;8.35;6.35;;;15.50;99.90;;;;;;4982716;28;20122;-56
2023/08/14 01:18:46;;;;;;;9.48;5.97;;;15.50;99.90;;;;;;4967765;28;20047;-54
2023/08/14 01:21:15;;;;;;;9.90;6.68;;;15.50;99.90;;;;;;4968044;28;20038;-55
2023/08/14 01:24:11;;;;;;;9.70;6.47;;;15.50;99.90;;;;;;4969068;28;20054;-55
2023/08/14 01:26:38;;;;;;;9.43;6.38;;;15.50;99.90;;;;;;4985019;28;20048;-56
2023/08/14 01:29:03;;;;;;;11.38;6.60;;;15.50;99.90;;;;;;4985867;28;20057;-55
2023/08/14 01:31:29;;;;;;;13.65;6.95;;;15.50;99.90;;;;;;4986707;28;20042;-55
2023/08/14 01:33:55;;;;;;;11.13;6.43;;;15.40;99.90;;;;;;4986942;28;20061;-56
2023/08/14 01:36:46;;;;;;;9.85;6.70;;;15.50;99.90;;;;;;4987029;28;20042;-54
2023/08/14 01:39:18;;;;;;;8.25;7.05;;;15.40;99.90;;;;;;4985564;28;20047;-55
2023/08/14 01:42:01;;;;;;;10.95;7.40;;;15.40;99.90;;;;;;4983456;28;20050;-55
2023/08/14 01:44:30;;;;;;;9.40;7.22;;;15.40;99.90;;;;;;4983596;28;20404;-55
2023/08/14 01:46:57;;;;;;;10.32;7.25;;;15.40;99.90;;;;;;4985760;28;20424;-55
2023/08/14 01:49:25;;;;;;;11.15;6.95;;;15.30;99.90;;;;;;4986602;28;20045;-55
2023/08/14 01:51:53;;;;;;;12.43;7.70;;;15.30;99.90;;;;;;4984634;28;20038;-55
2023/08/14 01:54:19;;;;;;;10.13;7.70;;;15.30;99.90;;;;;;4986641;28;20121;-55
2023/08/14 01:56:45;;;;;;;14.07;8.38;;;15.30;99.90;;;;;;4986221;28;20057;-55
2023/08/14 01:59:11;;;;;;;12.38;7.70;;;15.30;99.90;;;;;;4986125;28;20046;-55
2023/08/14 02:01:36;;;;;;;12.88;8.23;;;15.30;99.90;;;;;;4985428;28;20047;-56
2023/08/14 02:04:02;;;;;;;11.38;8.20;;;15.30;99.90;;;;;;4984646;28;20085;-55
2023/08/14 02:06:27;;;;;;;9.20;7.38;;;15.40;99.90;;;;;;4987399;28;20034;-55
2023/08/14 02:08:53;;;;;;;10.82;7.35;;;15.30;99.90;;;;;;4986922;28;20521;-56
2023/08/14 02:11:19;;;;;;;9.02;7.05;;;15.30;99.90;;;;;;4986283;28;20563;-54
2023/08/14 02:13:44;;;;;;;10.27;7.50;;;15.40;99.90;;;;;;4986257;28;20089;-56
2023/08/14 02:16:10;;;;;;;10.20;7.63;;;15.30;99.90;;;;;;4981248;28;20541;-55
2023/08/14 02:18:36;;;;;;;9.38;7.55;;;15.30;99.90;;;;;;4966471;28;20043;-56
2023/08/14 02:21:01;;;;;;;9.85;7.82;;;15.30;99.90;;;;;;4967096;28;20493;-55
2023/08/14 02:23:27;;;;;;;9.13;7.53;;;15.30;99.90;;;;;;4966357;28;20042;-56
2023/08/14 02:25:55;;;;;;;10.00;7.80;;;15.20;99.90;;;;;;4967476;28;20463;-55
2023/08/14 02:28:21;;;;;;;10.93;7.50;;;15.20;99.90;;;;;;4967442;28;20043;-56
2023/08/14 02:30:47;;;;;;;12.85;8.10;;;15.20;99.90;;;;;;4980267;28;20043;-56
2023/08/14 02:33:12;;;;;;;10.35;7.47;;;15.10;99.90;;;;;;4981717;28;20109;-56
2023/08/14 02:35:38;;;;;;;10.30;7.50;;;15.20;99.90;;;;;;4967032;28;20105;-55
2023/08/14 02:38:05;;;;;;;10.63;7.53;;;15.40;99.90;;;;;;4967556;28;20501;-57
2023/08/14 02:40:31;;;;;;;15.82;7.85;;;15.20;99.90;;;;;;4967147;28;20034;-56
2023/08/14 02:42:59;;;;;;;12.30;7.75;;;15.20;99.90;;;;;;4967045;28;20050;-55
2023/08/14 02:45:24;;;;;;;11.90;7.72;;;15.30;99.90;;;;;;4966211;28;20394;-56
2023/08/14 02:47:50;;;;;;;10.73;7.88;;;15.20;99.90;;;;;;4967591;28;20045;-56
2023/08/14 02:50:16;;;;;;;14.90;8.13;;;15.30;99.90;;;;;;4967283;28;20042;-56
2023/08/14 02:52:41;;;;;;;12.77;8.13;;;15.30;99.90;;;;;;4967568;28;20453;-57
2023/08/14 02:55:07;;;;;;;9.85;7.90;;;15.10;99.90;;;;;;4965740;28;20076;-54
2023/08/14 02:57:33;;;;;;;11.32;8.57;;;15.20;99.90;;;;;;4967394;28;20080;-55
2023/08/14 02:59:58;;;;;;;12.55;7.88;;;15.20;99.90;;;;;;4967782;28;20433;-56
2023/08/14 03:02:24;;;;;;;9.45;8.27;;;15.20;99.90;;;;;;4968020;28;20077;-56
2023/08/14 03:04:50;;;;;;;10.70;8.30;;;15.10;99.90;;;;;;4967570;28;20043;-56
2023/08/14 03:07:16;;;;;;;15.23;8.40;;;15.10;99.90;;;;;;4967750;28;20043;-56
2023/08/14 03:09:41;;;;;;;10.82;8.40;;;15.10;99.90;;;;;;4967860;28;20053;-56
2023/08/14 03:12:07;;;;;;;10.88;8.32;;;15.10;99.90;;;;;;4967332;28;20046;-56
2023/08/14 03:14:33;;;;;;;10.68;8.73;;;15.00;99.90;;;;;;4973292;28;20060;-56
2023/08/14 03:16:58;;;;;;;13.13;8.70;;;15.00;99.90;;;;;;4968685;28;20129;-56
2023/08/14 03:19:24;;;;;;;10.73;8.50;;;15.00;99.90;;;;;;4985810;28;20397;-56
2023/08/14 03:21:52;;;;;;;9.85;8.10;;;15.10;99.90;;;;;;4986579;28;20042;-57
2023/08/14 03:24:18;;;;;;;11.93;8.65;;;15.10;99.90;;;;;;4968488;28;20055;-57
2023/08/14 03:26:45;;;;;;;11.48;8.77;;;15.00;99.90;;;;;;4986704;28;20161;-56
2023/08/14 03:29:10;;;;;;;12.80;9.25;;;14.90;99.90;;;;;;4986475;28;20050;-56
2023/08/14 03:31:36;;;;;;;14.30;9.05;;;15.00;99.90;;;;;;4985680;28;20405;-56
2023/08/14 03:34:02;;;;;;;13.25;9.18;;;14.90;99.90;;;;;;4984640;28;20046;-56
2023/08/14 03:36:27;;;;;;;11.32;9.02;;;14.90;99.90;;;;;;4986972;28;20512;-56
2023/08/14 03:38:53;;;;;;;12.02;8.98;;;14.90;99.90;;;;;;4986238;28;20129;-56
2023/08/14 03:41:19;;;;;;;11.77;9.10;;;15.00;99.90;;;;;;4985603;28;20042;-56
2023/08/14 03:43:45;;;;;;;11.75;9.40;;;15.00;99.90;;;;;;4986588;28;20118;-56
2023/08/14 03:46:11;;;;;;;14.48;9.43;;;14.90;99.90;;;;;;4985439;28;20050;-56
2023/08/14 03:48:37;;;;;;;14.00;9.80;;;15.00;99.90;;;;;;4986971;28;20461;-56
2023/08/14 03:51:03;;;;;;;12.07;9.13;;;14.90;99.90;;;;;;4987146;28;20093;-56
2023/08/14 03:53:28;;;;;;;12.32;9.10;;;14.90;99.90;;;;;;4990077;28;20039;-54
2023/08/14 03:55:54;;;;;;;13.48;9.88;;;15.00;99.90;;;;;;4989210;28;20684;-56
2023/08/14 03:58:19;;;;;;;12.50;9.50;;;14.90;99.90;;;;;;4989177;28;20429;-55
2023/08/14 04:00:48;;;;;;;15.70;9.57;;;14.90;99.90;;;;;;4988793;28;20096;-55
2023/08/14 04:03:14;;;;;;;11.52;9.50;;;14.90;99.90;;;;;;4989970;28;20042;-55
2023/08/14 04:05:40;;;;;;;13.73;10.13;;;14.90;99.90;;;;;;4989156;28;20065;-56
2023/08/14 04:08:07;;;;;;;10.27;8.77;;;15.00;99.90;;;;;;4989375;28;20670;-56
2023/08/14 04:10:33;;;;;;;13.15;10.20;;;14.90;99.90;;;;;;4989798;28;20405;-56
2023/08/14 04:12:59;;;;;;;10.65;9.55;;;14.80;99.90;;;;;;4972794;28;20058;-57
2023/08/14 04:15:25;;;;;;;14.45;10.02;;;14.90;99.90;;;;;;4988629;28;20046;-56
2023/08/14 04:17:51;;;;;;;14.82;9.88;;;14.80;99.90;;;;;;4990275;28;20100;-55
2023/08/14 04:20:16;;;;;;;11.05;9.88;;;14.80;99.90;;;;;;4990073;28;20101;-55
2023/08/14 04:22:42;;;;;;;10.43;9.27;;;14.90;99.90;;;;;;4988950;28;20050;-56
2023/08/14 04:25:08;;;;;;;13.10;9.73;;;14.80;99.90;;;;;;4989761;28;20123;-57
2023/08/14 04:27:36;;;;;;;12.57;10.15;;;14.80;99.90;;;;;;4989748;28;20043;-56
2023/08/14 04:30:03;;;;;;;10.95;9.50;;;14.80;99.90;;;;;;4988547;28;20050;-55
2023/08/14 04:32:29;;;;;;;12.05;10.05;;;14.80;99.90;;;;;;4989876;28;20038;-57
2023/08/14 04:34:54;;;;;;;12.55;10.30;;;14.80;99.90;;;;;;4988583;28;20038;-56
2023/08/14 04:37:20;;;;;;;12.60;10.10;;;14.70;99.90;;;;;;4971707;28;20488;-57
2023/08/14 04:39:45;;;;;;;12.80;10.00;;;14.80;99.90;;;;;;4988875;28;20061;-56
2023/08/14 04:42:11;;;;;;;13.73;10.30;;;14.90;99.90;;;;;;4989285;28;20046;-56
2023/08/14 04:44:37;;;;;;;12.68;10.00;;;14.80;99.90;;;;;;4989719;28;20122;-57
2023/08/14 04:47:02;;;;;;;16.00;9.85;;;14.80;99.90;;;;;;4970904;28;20042;-54
2023/08/14 04:49:28;;;;;;;13.18;10.30;;;14.80;99.90;;;;;;4989364;28;20053;-56
2023/08/14 04:51:54;;;;;;;13.25;10.20;;;14.90;99.90;;;;;;4988699;28;20047;-56
2023/08/14 04:54:20;;;;;;;11.73;9.52;;;15.00;99.90;;;;;;4989385;28;20061;-56
2023/08/14 04:56:45;;;;;;;10.50;9.40;;;14.90;99.90;;;;;;4987847;28;20405;-56
2023/08/14 04:59:11;;;;;;;12.10;9.85;;;14.80;99.90;;;;;;4989079;28;20092;-56
2023/08/14 05:01:36;;;;;;;13.65;10.05;;;15.00;99.90;;;;;;4987756;28;20057;-56
2023/08/14 05:04:03;;;;;;;13.65;9.82;;;15.00;99.90;;;;;;4988254;28;20065;-57
2023/08/14 05:06:28;;;;;;;11.00;9.68;;;15.10;99.90;;;;;;4988615;28;20057;-56
2023/08/14 05:08:54;;;;;;;12.32;9.25;;;15.30;99.90;;;;;;4988636;28;20054;-55
2023/08/14 05:11:20;;;;;;;10.45;8.23;;;15.60;99.90;;;;;;4989300;28;20038;-56
2023/08/14 05:13:46;;;;;;;9.70;8.70;;;16.00;99.90;;;;;;4988258;28;20065;-55
2023/08/14 05:16:12;;;;;;;8.98;8.10;;;16.10;99.90;;;;;;4988322;28;20381;-55
2023/08/14 05:18:37;;;;;;;12.10;8.43;;;16.20;99.90;;;;;;4988928;28;20057;-55
2023/08/14 05:21:03;;;;;;;11.02;8.48;;;16.10;99.90;;;;;;4987801;28;20121;-56
2023/08/14 05:23:29;;;;;;;11.90;9.20;;;16.00;99.90;;;;;;4987762;28;20077;-56
2023/08/14 05:25:54;;;;;;;10.52;8.38;;;15.90;99.90;;;;;;4988361;28;20705;-54
2023/08/14 05:28:20;;;;;;;10.02;8.52;;;16.00;99.90;;;;;;4988028;28;20085;-56
2023/08/14 05:30:45;;;;;;;11.30;9.10;;;15.90;99.90;;;;;;4986650;28;20564;-55
2023/08/14 05:33:12;;;;;;;10.35;8.60;;;16.00;99.90;;;;;;4988285;28;20050;-54
2023/08/14 05:35:37;;;;;;;11.82;9.05;;;15.70;99.90;;;;;;4987811;28;20069;-56
2023/08/14 05:38:03;;;;;;;14.02;8.90;;;15.80;99.90;;;;;;4988002;28;20488;-56
2023/08/14 05:40:29;;;;;;;9.93;8.93;;;16.00;99.90;;;;;;4987719;28;20038;-57
2023/08/14 05:43:04;;;;;;;9.13;8.07;;;16.30;99.90;;;;;;4987525;28;20389;-56
2023/08/14 05:45:38;;;;;;;10.85;8.25;;;16.40;99.90;;;;;;4986913;28;20058;-56
2023/08/14 05:48:06;;;;;;;10.02;8.93;;;16.80;99.90;;;;;;4987684;28;20042;-56
2023/08/14 05:50:32;;;;;;;8.48;7.57;;;17.20;99.90;;;;;;4968502;28;20050;-56
2023/08/14 05:53:03;;;;;;;8.40;6.95;;;17.60;99.90;;;;;;4950411;28;20047;-56
2023/08/14 05:55:32;;;;;;;9.63;7.75;;;17.70;99.90;;;;;;4972784;28;20125;-56
2023/08/14 05:57:58;;;;;;;8.60;6.80;;;17.90;99.90;;;;;;4987804;28;20053;-56
2023/08/14 06:00:27;;;;;;;8.20;7.07;;;18.10;99.90;;;;;;4986388;28;20440;-56
2023/08/14 06:02:53;;;;;;;8.90;7.28;;;18.30;99.90;;;;;;4987290;28;20433;-57
2023/08/14 06:05:19;;;;;;;10.00;7.68;;;18.00;99.90;;;;;;4987435;28;20052;-55
2023/08/14 06:07:47;;;;;;;11.10;7.68;;;17.80;99.90;;;;;;4987606;28;20051;-55
2023/08/14 06:10:12;;;;;;;9.20;8.18;;;17.50;99.90;;;;;;4987962;28;20038;-57
2023/08/14 06:12:38;;;;;;;10.63;7.30;;;17.40;99.90;;;;;;4987832;28;20133;-57
2023/08/14 06:15:05;;;;;;;9.38;7.78;;;17.40;99.90;;;;;;4985970;28;20123;-56
2023/08/14 06:17:32;;;;;;;11.30;7.82;;;17.30;99.90;;;;;;4987297;28;20051;-57
2023/08/14 06:19:58;;;;;;;9.90;7.68;;;17.10;99.90;;;;;;4987461;28;20085;-57
2023/08/14 06:22:24;;;;;;;14.13;8.00;;;17.00;99.90;;;;;;4987352;28;20069;-57
2023/08/14 06:24:50;;;;;;;10.02;7.53;;;16.90;99.90;;;;;;4984934;28;20092;-57
2023/08/14 06:27:15;;;;;;;11.80;7.38;;;16.90;99.90;;;;;;4987184;28;20042;-56
2023/08/14 06:29:41;;;;;;;10.23;7.60;;;17.10;99.90;;;;;;4986383;28;20046;-56
2023/08/14 06:32:07;;;;;;;10.23;7.55;;;17.10;99.90;;;;;;4969656;28;20050;-56
2023/08/14 06:34:32;;;;;;;11.98;8.40;;;17.10;99.90;;;;;;4969578;28;20093;-56
2023/08/14 06:36:58;;;;;;;9.27;7.53;;;17.00;99.90;;;;;;4986901;28;20084;-58
2023/08/14 06:39:24;;;;;;;9.48;7.60;;;17.10;99.90;;;;;;4986984;28;20043;-56
2023/08/14 06:41:49;;;;;;;11.02;7.28;;;17.50;99.90;;;;;;4986622;28;20042;-56
2023/08/14 06:44:15;;;;;;;14.07;7.97;;;17.80;99.90;;;;;;4987084;28;20516;-55
2023/08/14 06:46:41;;;;;;;8.80;7.20;;;17.80;99.90;;;;;;4986111;28;20648;-57
2023/08/14 06:49:07;;;;;;;9.02;6.95;;;17.70;99.90;;;;;;4987724;28;20073;-57
2023/08/14 06:51:33;;;;;;;9.63;7.55;;;17.50;99.90;;;;;;4986509;28;20046;-53
2023/08/14 06:53:58;;;;;;;9.32;7.45;;;17.40;99.90;;;;;;4986722;28;20049;-57
2023/08/14 06:56:24;;;;;;;10.70;7.60;;;17.40;99.90;;;;;;4986431;28;20069;-56
2023/08/14 06:58:50;;;;;;;9.63;7.20;;;17.50;99.90;;;;;;4986088;28;20467;-56
2023/08/14 07:01:16;;;;;;;9.70;7.32;;;17.40;99.90;;;;;;4986183;28;20146;-56
2023/08/14 07:03:42;;;;;;;10.60;7.28;;;17.40;99.90;;;;;;4986658;28;20074;-56
2023/08/14 07:06:07;;;;;;;10.40;7.07;;;17.30;99.90;;;;;;4987612;28;20054;-55
2023/08/14 07:08:33;;;;;;;12.85;7.85;;;17.40;99.90;;;;;;4986628;28;20043;-56
2023/08/14 07:10:59;;;;;;;10.85;7.60;;;17.30;99.90;;;;;;4986766;28;20038;-55
2023/08/14 07:13:24;;;;;;;11.00;7.93;;;17.30;99.90;;;;;;4986751;28;20042;-59
2023/08/14 07:15:50;;;;;;;12.55;7.38;;;17.40;99.90;;;;;;4985228;28;20109;-57
2023/08/14 07:18:20;;;;;;;9.95;7.55;;;17.50;99.90;;;;;;4986558;28;20054;-56
2023/08/14 07:20:46;;;;;;;12.60;7.68;;;17.60;99.90;;;;;;4987326;28;20116;-56
2023/08/14 07:23:13;;;;;;;10.32;7.85;;;17.60;99.90;;;;;;4986205;28;20613;-56
2023/08/14 07:25:38;;;;;;;14.80;7.55;;;17.60;99.90;;;;;;4986873;28;20138;-56
2023/08/14 07:28:05;;;;;;;12.50;7.65;;;17.70;99.90;;;;;;4989932;28;20544;-56
2023/08/14 07:30:30;;;;;;;10.85;7.45;;;17.90;99.90;;;;;;4989377;28;20054;-56
2023/08/14 07:32:56;;;;;;;15.05;7.30;;;18.10;99.90;;;;;;4988972;28;20093;-57
2023/08/14 07:35:22;;;;;;;9.07;7.60;;;18.10;99.90;;;;;;4989311;28;20050;-56
2023/08/14 07:37:47;;;;;;;10.00;6.90;;;18.30;99.90;;;;;;4989718;28;20121;-56
2023/08/14 07:40:13;;;;;;;9.13;7.15;;;18.50;99.90;;;;;;4989154;28;20536;-56
2023/08/14 07:42:38;;;;;;;9.82;7.18;;;18.90;99.90;;;;;;4988167;28;20050;-56
2023/08/14 07:45:05;;;;;;;11.75;7.72;;;19.10;99.90;;;;;;4988214;28;20509;-56
2023/08/14 07:47:30;;;;;;;9.95;6.90;;;19.10;99.90;;;;;;4990042;28;20038;-55
2023/08/14 07:49:56;;;;;;;10.80;6.90;;;19.20;99.90;;;;;;4989913;28;20129;-55
2023/08/14 07:52:22;;;;;;;8.25;6.03;;;19.40;99.90;;;;;;4989875;28;20046;-56
2023/08/14 07:54:47;;;;;;;13.40;6.70;;;19.50;99.90;;;;;;4989160;28;20051;-56
2023/08/14 07:57:13;;;;;;;9.52;6.55;;;19.80;99.90;;;;;;4988276;28;20038;-56
2023/08/14 07:59:38;;;;;;;6.72;5.72;;;20.20;99.90;;;;;;4988273;28;20093;-56
2023/08/14 08:02:05;;;;;;;7.53;5.72;;;20.70;99.90;;;;;;4970418;28;20046;-55
2023/08/14 08:04:36;;;;;;;7.82;5.32;;;21.10;99.90;;;;;;4988357;28;20050;-55
2023/08/14 08:07:02;;;;;;;8.35;5.75;;;21.30;99.90;;;;;;4988934;28;20053;-56
2023/08/14 08:09:28;;;;;;;6.80;4.90;;;21.40;99.90;;;;;;4988613;28;20054;-60
2023/08/14 08:11:53;;;;;;;8.23;4.45;;;21.30;99.90;;;;;;4988823;28;20065;-57
2023/08/14 08:14:19;;;;;;;8.02;4.90;;;21.40;99.90;;;;;;4987578;28;20062;-57
2023/08/14 08:16:45;;;;;;;6.82;4.82;;;21.40;99.90;;;;;;4988438;28;20198;-57
2023/08/14 08:19:10;;;;;;;8.60;4.63;;;21.50;99.90;;;;;;4988571;28;20516;-55
2023/08/14 08:21:36;;;;;;;9.05;4.30;;;21.20;99.90;;;;;;4987567;28;20583;-54
2023/08/14 08:24:04;;;;;;;7.10;4.05;;;21.10;99.90;;;;;;4988211;28;20386;-55
2023/08/14 08:26:30;;;;;;;9.20;3.85;;;21.10;99.90;;;;;;4970736;28;20058;-55
2023/08/14 08:28:55;;;;;;;6.53;3.85;;;21.10;99.90;;;;;;4989494;28;20084;-55
2023/08/14 08:31:22;;;;;;;5.53;3.53;;;21.20;99.90;;;;;;4988257;28;20385;-56
2023/08/14 08:33:47;;;;;;;7.20;3.70;;;21.30;99.90;;;;;;4971732;28;20050;-57
2023/08/14 08:36:15;;;;;;;6.97;3.20;;;21.50;99.90;;;;;;4989767;28;20066;-55
2023/08/14 08:38:41;;;;;;;5.32;3.08;;;21.70;99.90;;;;;;4988470;28;20042;-56
2023/08/14 08:41:07;;;;;;;7.68;3.38;;;22.00;99.90;;;;;;4971768;28;20485;-55
2023/08/14 08:43:34;;;;;;;5.65;3.17;;;22.20;99.90;;;;;;4989168;28;20046;-56
2023/08/14 08:46:06;;;;;;;6.80;3.17;;;22.20;99.90;;;;;;4970104;28;20046;-56
2023/08/14 08:48:34;;;;;;;6.30;2.83;;;22.40;99.90;;;;;;4988974;28;20070;-56
2023/08/14 08:51:00;;;;;;;5.05;2.58;;;22.50;99.90;;;;;;4988076;28;20042;-55
2023/08/14 08:53:26;;;;;;;6.22;2.40;;;22.60;99.90;;;;;;4987323;28;20065;-56
2023/08/14 08:55:51;;;;;;;5.45;2.10;;;22.70;99.90;;;;;;4986781;28;20046;-55
2023/08/14 08:58:18;;;;;;;5.85;2.10;;;22.90;99.90;;;;;;4987845;28;20474;-56
2023/08/14 09:00:44;;;;;;;5.90;2.35;;;23.10;99.90;;;;;;4984863;28;20434;-56
2023/08/14 09:03:12;;;;;;;5.13;2.10;;;23.10;99.90;;;;;;4987388;28;20052;-56
2023/08/14 09:05:38;;;;;;;7.00;2.60;;;23.00;99.90;;;;;;4987705;28;20193;-55
2023/08/14 09:08:04;;;;;;;5.05;2.40;;;23.00;99.90;;;;;;4987464;28;20562;-56
2023/08/14 09:10:29;;;;;;;6.68;2.45;;;23.00;99.90;;;;;;4988014;28;20074;-56
2023/08/14 09:12:56;;;;;;;6.80;2.50;;;23.00;99.90;;;;;;4988212;28;20069;-55
2023/08/14 09:15:25;;;;;;;6.57;2.42;;;23.10;99.90;;;;;;4986941;28;20503;-57
2023/08/14 09:17:51;;;;;;;4.32;2.42;;;23.10;99.90;;;;;;4970169;28;20589;-56
2023/08/14 09:20:21;;;;;;;6.45;2.80;;;22.90;99.90;;;;;;4988506;28;20046;-55
2023/08/14 09:22:47;;;;;;;7.63;2.60;;;22.80;99.90;;;;;;4971475;28;20130;-55
2023/08/14 09:25:14;;;;;;;7.97;3.00;;;22.80;99.90;;;;;;4988265;28;20157;-56
2023/08/14 09:27:42;;;;;;;5.97;2.92;;;22.70;99.90;;;;;;4987537;28;20066;-56
2023/08/14 09:30:10;;;;;;;4.85;2.60;;;22.50;99.90;;;;;;4954010;28;20038;-56
2023/08/14 09:32:36;;;;;;;5.93;2.42;;;22.50;99.90;;;;;;4987945;28;20417;-55
2023/08/14 09:35:03;;;;;;;7.78;2.80;;;22.60;99.90;;;;;;4987173;28;20125;-56
2023/08/14 09:37:29;;;;;;;5.75;2.20;;;22.90;99.90;;;;;;4987654;28;20073;-56
2023/08/14 09:40:15;;;;;;;4.38;2.42;;;23.10;99.90;;;;;;4988036;28;20046;-56
2023/08/14 09:42:46;;;;;;;5.53;2.42;;;23.30;99.90;;;;;;4970101;28;20038;-56
2023/08/14 09:45:14;;;;;;;6.90;2.78;;;23.40;99.90;;;;;;4986664;28;20085;-55
2023/08/14 09:47:44;;;;;;;5.82;2.70;;;23.60;99.90;;;;;;4986496;28;20070;-56
2023/08/14 09:50:13;;;;;;;5.60;2.88;;;23.80;99.90;;;;;;4986566;28;20128;-56
2023/08/14 09:52:39;;;;;;;7.40;3.30;;;23.70;99.90;;;;;;4986482;28;20045;-56
2023/08/14 09:55:05;;;;;;;5.78;2.50;;;23.80;99.90;;;;;;4983488;28;20050;-57
2023/08/14 09:57:32;;;;;;;5.78;2.80;;;23.90;99.90;;;;;;4981683;28;20030;-58
2023/08/14 09:59:57;;;;;;;5.25;2.70;;;23.90;99.90;;;;;;4986189;28;20104;-56
2023/08/14 10:02:24;;;;;;;4.80;2.25;;;23.90;99.90;;;;;;4969562;28;20046;-56
2023/08/14 10:04:51;;;;;;;5.00;2.20;;;23.90;99.90;;;;;;4968824;28;20402;-57
2023/08/14 10:07:18;;;;;;;6.97;2.15;;;23.90;99.90;;;;;;4987197;28;20038;-57
2023/08/14 10:09:48;;;;;;;6.80;2.60;;;24.00;99.90;;;;;;4984609;28;20050;-58
2023/08/14 10:12:16;;;;;;;5.43;2.38;;;24.20;99.90;;;;;;4986443;28;20524;-57
2023/08/14 10:14:48;;;;;;;4.80;1.98;;;24.30;99.90;;;;;;4968225;28;20503;-57
2023/08/14 10:17:21;;;;;;;4.95;1.95;;;24.40;99.90;;;;;;4986915;28;20054;-57
2023/08/14 10:19:51;;;;;;;5.72;2.33;;;24.40;99.90;;;;;;4984840;28;20042;-58
2023/08/14 10:22:19;;;;;;;6.05;2.10;;;24.50;99.90;;;;;;4987126;28;20129;-55
2023/08/14 10:24:45;;;;;;;4.93;2.08;;;24.60;99.40;;;;;;4987455;28;20109;-58
2023/08/14 10:27:11;;;;;;;3.78;2.00;;;24.70;99.50;;;;;;4985846;28;20047;-58
2023/08/14 10:29:37;;;;;;;4.40;1.77;;;24.90;98.30;;;;;;4986016;28;20042;-58
2023/08/14 10:32:05;;;;;;;5.30;1.60;;;24.90;98.70;;;;;;4986727;28;20053;-57
2023/08/14 10:34:32;;;;;;;5.88;1.90;;;24.90;98.00;;;;;;4985867;28;20108;-57
2023/08/14 10:36:58;;;;;;;4.13;1.67;;;24.80;99.20;;;;;;4987299;28;20077;-58
2023/08/14 10:39:34;;;;;;;3.72;1.88;;;25.00;99.00;;;;;;4969400;28;20141;-58
2023/08/14 10:42:02;;;;;;;6.90;1.98;;;25.20;99.20;;;;;;4985690;28;20053;-57
2023/08/14 10:44:34;;;;;;;4.68;1.60;;;25.40;98.50;;;;;;4968592;28;20042;-57
2023/08/14 10:47:10;;;;;;;3.35;1.50;;;25.60;97.50;;;;;;4968526;28;20073;-58
2023/08/14 10:49:54;;;;;;;5.82;1.73;;;25.60;97.80;;;;;;4983576;28;20097;-58
2023/08/14 10:52:20;;;;;;;4.05;1.60;;;25.70;96.60;;;;;;4986176;28;20081;-57
2023/08/14 10:54:51;;;;;;;5.25;1.58;;;25.50;96.10;;;;;;4986320;28;20046;-58
2023/08/14 10:57:17;;;;;;;4.75;1.63;;;25.30;97.20;;;;;;4985708;28;20420;-58
2023/08/14 10:59:53;;;;;;;4.38;1.80;;;25.20;97.60;;;;;;4985756;28;20046;-59
2023/08/14 11:02:19;;;;;;;5.78;2.15;;;25.40;97.10;;;;;;4990216;28;20129;-56
2023/08/14 11:04:58;;;;;;;7.68;1.90;;;25.50;97.30;;;;;;4990037;28;20133;-58
2023/08/14 11:07:33;;;;;;;3.58;1.90;;;25.70;97.40;;;;;;4988321;28;20632;-57
2023/08/14 11:10:02;;;;;;;6.75;1.88;;;25.90;96.70;;;;;;4988908;28;20049;-58
2023/08/14 11:12:27;;;;;;;3.80;1.30;;;25.90;97.00;;;;;;4982362;28;20034;-58
2023/08/14 11:14:56;;;;;;;4.93;1.75;;;25.90;96.00;;;;;;4989019;28;20129;-57
2023/08/14 11:17:24;;;;;;;4.05;1.70;;;25.80;96.30;;;;;;4989979;28;20137;-54
2023/08/14 11:19:50;;;;;;;5.95;1.88;;;25.70;96.40;;;;;;4972268;28;20104;-56
2023/08/14 11:22:16;;;;;;;3.28;1.65;;;25.60;96.10;;;;;;4989095;28;20042;-57
2023/08/14 11:24:42;;;;;;;5.20;1.75;;;25.50;96.50;;;;;;4989099;28;20112;-57
2023/08/14 11:27:07;;;;;;;3.25;1.50;;;25.40;96.80;;;;;;4989495;28;20495;-57
2023/08/14 11:29:35;;;;;;;6.03;1.63;;;25.40;97.40;;;;;;4988772;28;20050;-57
2023/08/14 11:32:02;;;;;;;4.95;1.75;;;25.40;97.30;;;;;;4988593;28;20416;-57
2023/08/14 11:34:28;;;;;;;6.32;2.10;;;25.50;97.40;;;;;;4989241;28;20081;-57
2023/08/14 11:36:58;;;;;;;4.60;1.67;;;25.60;97.60;;;;;;4990242;28;20069;-57
2023/08/14 11:39:24;;;;;;;5.68;1.88;;;25.50;97.10;;;;;;4989507;28;20061;-58
2023/08/14 11:41:50;;;;;;;3.88;1.90;;;25.50;96.70;;;;;;4989748;28;20046;-57
2023/08/14 11:44:16;;;;;;;4.13;2.03;;;25.50;97.20;;;;;;4988663;28;20385;-58
2023/08/14 11:46:42;;;;;;;3.88;1.83;;;25.70;96.80;;;;;;4988307;28;20038;-56
2023/08/14 11:49:08;;;;;;;3.58;1.60;;;25.80;96.80;;;;;;4987639;28;20513;-60
2023/08/14 11:51:33;;;;;;;6.88;2.17;;;25.80;97.20;;;;;;4988578;28;20090;-59
2023/08/14 11:54:00;;;;;;;4.30;1.58;;;25.70;96.10;;;;;;4989172;28;20413;-59
2023/08/14 11:56:26;;;;;;;3.72;1.65;;;25.40;96.00;;;;;;4988697;28;20053;-59
2023/08/14 11:58:52;;;;;;;3.63;1.50;;;25.30;96.10;;;;;;4988679;28;20053;-59
2023/08/14 12:01:19;;;;;;;3.67;1.67;;;25.30;95.00;;;;;;4971146;28;20397;-59
2023/08/14 12:03:46;;;;;;;4.72;1.80;;;25.10;95.70;;;;;;4988598;28;20046;-60
2023/08/14 12:06:12;;;;;;;5.78;1.75;;;24.80;96.60;;;;;;4988878;28;20069;-59
2023/08/14 12:08:41;;;;;;;4.05;1.80;;;24.70;96.90;;;;;;4988853;28;20042;-58
2023/08/14 12:11:07;;;;;;;4.95;1.73;;;24.70;96.80;;;;;;4988923;28;20042;-59
2023/08/14 12:13:36;;;;;;;4.38;1.75;;;24.90;97.30;;;;;;4987873;28;20084;-58
2023/08/14 12:16:08;;;;;;;6.32;1.60;;;25.30;95.90;;;;;;4987730;28;20047;-60
2023/08/14 12:18:34;;;;;;;4.97;1.80;;;25.50;96.00;;;;;;4988066;28;20061;-60
2023/08/14 12:21:00;;;;;;;3.42;1.60;;;25.60;95.50;;;;;;4988459;28;20109;-59
2023/08/14 12:23:26;;;;;;;4.45;1.58;;;25.60;95.00;;;;;;4971432;28;20065;-60
2023/08/14 12:25:52;;;;;;;4.68;1.52;;;25.60;95.80;;;;;;4987827;28;20392;-59
2023/08/14 12:28:19;;;;;;;5.75;1.52;;;25.60;95.70;;;;;;4988612;28;20092;-59
2023/08/14 12:30:46;;;;;;;4.32;1.60;;;25.70;95.40;;;;;;4987302;28;20054;-60
2023/08/14 12:33:15;;;;;;;3.60;1.65;;;25.60;94.20;;;;;;4988183;28;20047;-59
2023/08/14 12:35:41;;;;;;;3.13;1.25;;;25.40;95.10;;;;;;4987920;28;20081;-59
2023/08/14 12:38:06;;;;;;;5.32;1.63;;;25.30;95.40;;;;;;4987804;28;20092;-59
2023/08/14 12:40:33;;;;;;;2.95;1.38;;;25.50;95.50;;;;;;4988253;28;20125;-60
2023/08/14 12:42:59;;;;;;;5.78;1.80;;;25.60;94.90;;;;;;4987664;28;20089;-60